Time;durP1;ratioP1;P1;durP2;ratioP2;P2;SDS_P1;SDS_P2;PMS_P1;PMS_P2;Temp;Humidity;BMP_temperature;BMP_pressure;BME280_temperature;BME280_humidity;BME280_pressure;Samples;Min_cycle;Max_cycle;Signal;HPM_P1;HPM_P2
2021/01/26 10:45:26;;;;;;;6.50;4.77;;;;;;;1.83;91.79;98756.50;5165660;27;20517;-85
2021/01/26 10:48:47;;;;;;;6.57;3.37;;;;;;;2.42;88.53;98733.78;5131786;27;40111;-84
2021/01/26 10:51:36;;;;;;;6.60;3.90;;;;;;;3.01;84.89;98775.44;5056056;28;41801;-86
2021/01/26 10:54:27;;;;;;;5.87;3.60;;;;;;;3.02;81.88;98739.66;5073568;28;43944;-90
2021/01/26 10:57:27;;;;;;;10.43;4.33;;;;;;;3.52;80.04;98813.81;5090387;28;40883;-84
2021/01/26 11:00:48;;;;;;;4.90;3.30;;;;;;;3.56;78.61;98813.69;5077631;28;41256;-86
2021/01/26 11:03:17;;;;;;;6.87;3.53;;;;;;;3.66;78.34;98822.06;5091805;28;44076;-83
2021/01/26 11:06:44;;;;;;;5.67;3.30;;;;;;;3.52;77.75;98792.88;5087594;28;44500;-86
2021/01/26 11:09:17;;;;;;;6.23;3.47;;;;;;;3.73;77.42;98823.53;5066549;28;41933;-83
2021/01/26 11:12:33;;;;;;;5.37;3.13;;;;;;;3.73;77.44;98799.97;5069866;28;40504;-84
2021/01/26 11:18:29;;;;;;;3.97;3.10;;;;;;;3.80;76.38;98814.56;5061403;28;44117;-83
2021/01/26 11:21:33;;;;;;;4.10;2.63;;;;;;;3.94;76.22;98824.56;5058556;28;42583;-87
2021/01/26 11:24:20;;;;;;;7.40;3.87;;;;;;;3.93;75.98;98830.69;5072515;28;39589;-85
2021/01/26 11:29:57;;;;;;;7.43;3.27;;;;;;;3.95;75.99;98834.13;5098274;28;43433;-88
2021/01/26 11:32:31;;;;;;;6.43;3.53;;;;;;;3.90;75.45;98821.19;5092769;27;40933;-83
2021/01/26 11:35:26;;;;;;;5.53;3.10;;;;;;;3.94;75.62;98841.13;5111413;27;39588;-86
2021/01/26 11:38:24;;;;;;;4.60;2.60;;;;;;;3.88;75.85;98830.84;5099980;27;40894;-86
2021/01/26 11:43:56;;;;;;;4.73;3.33;;;;;;;3.82;76.15;98823.22;5092633;27;41444;-83
2021/01/26 11:46:43;;;;;;;4.70;3.03;;;;;;;3.63;76.36;98818.69;5106694;28;39280;-85
2021/01/26 11:49:30;;;;;;;4.83;3.10;;;;;;;3.74;76.61;98840.97;5064380;28;42222;-83
2021/01/26 11:52:22;;;;;;;6.00;3.03;;;;;;;3.46;76.86;98806.19;5033101;28;43652;-89
2021/01/26 11:55:18;;;;;;;5.03;3.43;;;;;;;3.60;77.38;98819.63;5076777;28;42661;-88
2021/01/26 11:57:58;;;;;;;4.93;3.50;;;;;;;3.59;77.21;98816.16;5039442;28;40254;-87
2021/01/26 12:00:59;;;;;;;6.37;4.17;;;;;;;3.77;77.35;98851.34;5056854;28;41460;-88
2021/01/26 12:03:33;;;;;;;7.03;3.50;;;;;;;3.57;77.18;98817.16;5057734;28;44378;-84
2021/01/26 12:06:09;;;;;;;5.50;3.27;;;;;;;3.73;77.55;98848.88;5057979;28;41853;-90
2021/01/26 12:08:38;;;;;;;5.23;3.40;;;;;;;3.70;77.80;98847.25;5058300;28;39604;-88
2021/01/26 12:11:09;;;;;;;6.10;3.40;;;;;;;3.75;77.77;98857.53;5041429;28;40853;-88
2021/01/26 12:14:04;;;;;;;7.53;3.40;;;;;;;3.66;78.28;98843.00;5057518;28;44304;-87
2021/01/26 12:19:35;;;;;;;7.83;3.30;;;;;;;3.35;78.52;98803.91;5060449;27;38772;-88
2021/01/26 12:22:16;;;;;;;9.20;3.83;;;;;;;3.54;78.82;98822.47;5099176;27;40786;-87
2021/01/26 12:24:51;;;;;;;11.23;4.63;;;;;;;3.62;78.83;98841.38;5116319;27;42882;-84
2021/01/26 12:27:22;;;;;;;9.17;3.53;;;;;;;3.62;79.27;98851.88;5099902;27;41025;-87
2021/01/26 12:29:49;;;;;;;7.77;3.30;;;;;;;3.61;79.34;98842.28;5111739;27;40005;-84
2021/01/26 12:32:36;;;;;;;4.57;3.23;;;;;;;3.67;79.33;98860.44;5084290;28;42602;-83
2021/01/26 12:35:20;;;;;;;6.03;3.67;;;;;;;3.71;79.80;98867.25;5052879;28;42721;-85
2021/01/26 12:37:48;;;;;;;5.13;3.50;;;;;;;3.59;79.52;98849.34;5054244;28;42511;-85
2021/01/26 12:40:18;;;;;;;6.43;2.90;;;;;;;3.71;79.74;98872.50;5037522;28;39875;-85
2021/01/26 12:42:46;;;;;;;4.97;3.10;;;;;;;3.56;79.95;98847.72;5039658;28;42375;-86
2021/01/26 12:45:47;;;;;;;6.60;3.40;;;;;;;3.78;79.71;98853.06;5056210;28;42881;-86
2021/01/26 12:48:24;;;;;;;5.97;3.70;;;;;;;3.91;79.56;98871.81;5057373;28;42544;-86
2021/01/26 12:51:27;;;;;;;6.77;3.87;;;;;;;3.92;79.58;98871.75;5057498;28;38895;-85
2021/01/26 12:53:57;;;;;;;6.50;3.30;;;;;;;3.80;79.30;98846.00;5056196;28;41913;-84
2021/01/26 12:56:26;;;;;;;4.70;3.77;;;;;;;3.76;79.32;98851.38;5062763;28;42057;-83
2021/01/26 12:58:53;;;;;;;4.17;3.30;;;;;;;3.68;79.29;98841.19;5058862;28;41535;-82
2021/01/26 13:01:40;;;;;;;4.77;3.10;;;;;;;3.86;79.27;98877.19;5039183;28;41484;-87
2021/01/26 13:04:08;;;;;;;9.50;3.97;;;;;;;3.73;78.99;98848.88;5050888;28;40834;-84
2021/01/26 13:06:35;;;;;;;7.20;3.50;;;;;;;3.68;79.53;98859.53;5056856;28;41913;-87
2021/01/26 13:09:03;;;;;;;9.00;3.53;;;;;;;3.76;79.30;98881.06;5074746;28;41336;-83
2021/01/26 13:11:31;;;;;;;6.27;3.10;;;;;;;3.71;79.37;98876.91;5066255;28;39906;-85
2021/01/26 13:14:05;;;;;;;9.17;3.57;;;;;;;3.51;80.00;98849.63;5037561;28;42436;-86
2021/01/26 13:16:52;;;;;;;6.60;3.70;;;;;;;3.61;80.11;98865.88;5062137;28;44224;-88
2021/01/26 13:19:59;;;;;;;6.00;2.60;;;;;;;3.65;80.13;98879.72;5015933;28;43519;-86
2021/01/26 13:22:34;;;;;;;3.80;3.27;;;;;;;3.61;80.34;98873.72;4996861;28;40578;-87
2021/01/26 13:25:26;;;;;;;3.73;3.27;;;;;;;3.50;80.76;98879.31;4996961;28;41811;-87
2021/01/26 13:28:18;;;;;;;4.00;2.97;;;;;;;3.46;80.99;98866.41;4976475;28;43346;-90
2021/01/26 13:30:45;;;;;;;4.57;2.60;;;;;;;3.47;80.87;98874.19;4958076;28;41588;-87
2021/01/26 13:33:13;;;;;;;3.50;2.97;;;;;;;3.33;81.22;98850.25;4964284;28;39480;-86
2021/01/26 13:35:40;;;;;;;4.27;3.33;;;;;;;3.53;81.40;98878.38;4989534;28;43163;-89
2021/01/26 13:38:07;;;;;;;6.13;3.10;;;;;;;3.56;81.25;98888.75;4957919;28;41779;-84
2021/01/26 13:40:34;;;;;;;3.70;2.80;;;;;;;3.57;81.25;98890.47;4957781;28;42410;-85
2021/01/26 13:43:02;;;;;;;7.27;3.03;;;;;;;3.56;81.22;98886.13;4972787;28;40406;-88
2021/01/26 13:45:31;;;;;;;4.57;3.13;;;;;;;3.61;80.89;98892.03;4957765;28;40821;-83
